Rome, Georgia
Current Conditions -  °F | °C
As of 7:53 AM on Monday 22 Dec 2014 (Local Time) from KRMG Reporting Station
Overcast Overcast  
Wind Chill: 41°   Ceiling: 1100
Heat Index: 46°   Visibility: 10mi
Dew Point: 43°   Wind: 9mph
Humidity: 89%   Direction: 130°SE
Pressure: 30.02"   Gusts: NA
Location:  34.25°N, 85.17°W
Report Text: KRMG 221253Z AUTO 13008KT 090V150 10SM OVC011 08/06 A3002 RMK AO2 SLP164 T00780061 $
Loading
Personal Weather Stations






























Interactive Weather Map New forecast layout! Learn more

10-Day Weather Forecast

Advertisements
Track Severe Weather on mobile